Time;durP1;ratioP1;P1;durP2;ratioP2;P2;SDS_P1;SDS_P2;PMS_P1;PMS_P2;Temp;Humidity;BMP_temperature;BMP_pressure;BME280_temperature;BME280_humidity;BME280_pressure;Samples;Min_cycle;Max_cycle;Signal;HPM_P1;HPM_P2
2021/11/06 00:01:49;;;;;;;;;;;;;;;;;;5086735;28;19904;-56
2021/11/06 00:04:15;;;;;;;;;;;;;;;;;;5087351;28;19911;-56
2021/11/06 00:06:44;;;;;;;;;;;;;;;;;;5087192;28;20447;-56
2021/11/06 00:09:10;;;;;;;;;;;;;;;;;;5087240;28;19926;-56
2021/11/06 00:11:36;;;;;;;;;;;;;;;;;;5086822;28;20338;-56
2021/11/06 00:14:02;;;;;;;;;;;;;;;;;;5086958;28;19953;-56
2021/11/06 00:16:29;;;;;;;;;;;;;;;;;;5085142;28;20381;-56
2021/11/06 00:18:56;;;;;;;;;;;;;;;;;;5087500;28;19947;-57
2021/11/06 00:21:21;;;;;;;;;;;;;;;;;;5084597;28;20401;-56
2021/11/06 00:23:47;;;;;;;;;;;;;;;;;;5087412;28;19955;-55
2021/11/06 00:26:13;;;;;;;;;;;;;;;;;;5086247;28;19930;-56
2021/11/06 00:28:39;;;;;;;;;;;;;;;;;;5086675;28;19934;-56
2021/11/06 00:31:05;;;;;;;;;;;;;;;;;;5086440;28;20375;-55
2021/11/06 00:33:32;;;;;;;;;;;;;;;;;;5085611;28;20006;-55
2021/11/06 00:35:58;;;;;;;;;;;;;;;;;;5086529;28;19908;-56
2021/11/06 00:38:24;;;;;;;;;;;;;;;;;;5086470;28;19954;-56
2021/11/06 00:40:51;;;;;;;;;;;;;;;;;;5086543;28;20360;-56
2021/11/06 00:43:16;;;;;;;;;;;;;;;;;;5086755;28;19900;-57
2021/11/06 00:45:42;;;;;;;;;;;;;;;;;;5073316;28;19921;-56
2021/11/06 00:48:08;;;;;;;;;;;;;;;;;;5065429;28;19911;-56
2021/11/06 00:50:35;;;;;;;;;;;;;;;;;;5065669;28;19947;-56
2021/11/06 00:53:01;;;;;;;;;;;;;;;;;;5066150;28;20387;-57
2021/11/06 00:55:27;;;;;;;;;;;;;;;;;;5065706;28;19909;-56
2021/11/06 00:57:54;;;;;;;;;;;;;;;;;;5065775;28;20386;-56
2021/11/06 01:00:21;;;;;;;;;;;;;;;;;;5065486;28;19904;-57
2021/11/06 01:02:48;;;;;;;;;;;;;;;;;;5066828;28;20399;-55
2021/11/06 01:05:14;;;;;;;;;;;;;;;;;;5065642;28;19904;-56
2021/11/06 01:07:39;;;;;;;;;;;;;;;;;;5065640;28;20371;-56
2021/11/06 01:10:05;;;;;;;;;;;;;;;;;;5065382;28;19920;-56
2021/11/06 01:12:31;;;;;;;;;;;;;;;;;;5065483;28;19908;-56
2021/11/06 01:14:57;;;;;;;;;;;;;;;;;;5065276;28;19981;-56
2021/11/06 01:17:23;;;;;;;;;;;;;;;;;;5065544;28;20397;-56
2021/11/06 01:19:49;;;;;;;;;;;;;;;;;;5064915;28;19930;-56
2021/11/06 01:22:15;;;;;;;;;;;;;;;;;;5066110;28;19904;-57
2021/11/06 01:24:41;;;;;;;;;;;;;;;;;;5065326;28;19970;-57
2021/11/06 01:27:10;;;;;;;;;;;;;;;;;;5065535;28;19905;-56
2021/11/06 01:29:37;;;;;;;;;;;;;;;;;;5065029;28;20387;-56
2021/11/06 01:32:03;;;;;;;;;;;;;;;;;;5065268;28;19943;-56
2021/11/06 01:34:30;;;;;;;;;;;;;;;;;;5065159;28;19943;-55
2021/11/06 01:36:56;;;;;;;;;;;;;;;;;;5065189;28;19912;-55
2021/11/06 01:39:23;;;;;;;;;;;;;;;;;;5064126;28;19932;-57
2021/11/06 01:41:49;;;;;;;;;;;;;;;;;;5065752;28;19950;-56
2021/11/06 01:44:15;;;;;;;;;;;;;;;;;;5065592;28;19904;-56
2021/11/06 01:46:41;;;;;;;;;;;;;;;;;;5064215;28;20428;-55
2021/11/06 01:49:07;;;;;;;;;;;;;;;;;;5065365;28;20394;-56
2021/11/06 01:51:34;;;;;;;;;;;;;;;;;;5065317;28;19954;-55
2021/11/06 01:54:00;;;;;;;;;;;;;;;;;;5064920;28;19908;-56
2021/11/06 01:56:26;;;;;;;;;;;;;;;;;;5065439;28;19912;-56
2021/11/06 01:58:52;;;;;;;;;;;;;;;;;;5064898;28;19913;-56
2021/11/06 02:01:18;;;;;;;;;;;;;;;;;;5065701;28;19995;-55
2021/11/06 02:03:45;;;;;;;;;;;;;;;;;;5064220;28;19904;-56
2021/11/06 02:06:11;;;;;;;;;;;;;;;;;;5065163;28;19908;-56
2021/11/06 02:08:37;;;;;;;;;;;;;;;;;;5065053;28;19904;-56
2021/11/06 02:11:03;;;;;;;;;;;;;;;;;;5064828;28;19948;-55
2021/11/06 02:13:30;;;;;;;;;;;;;;;;;;5064439;28;20152;-56
2021/11/06 02:15:56;;;;;;;;;;;;;;;;;;5065267;28;20397;-56
2021/11/06 02:18:22;;;;;;;;;;;;;;;;;;5064824;28;19987;-56
2021/11/06 02:20:48;;;;;;;;;;;;;;;;;;5078314;28;19911;-56
2021/11/06 02:23:14;;;;;;;;;;;;;;;;;;5086502;28;19904;-56
2021/11/06 02:25:40;;;;;;;;;;;;;;;;;;5089275;28;20426;-56
2021/11/06 02:28:06;;;;;;;;;;;;;;;;;;5088959;28;20302;-57
2021/11/06 02:30:33;;;;;;;;;;;;;;;;;;5089140;28;20366;-56
2021/11/06 02:32:59;;;;;;;;;;;;;;;;;;5089056;28;19943;-55
2021/11/06 02:35:25;;;;;;;;;;;;;;;;;;5086564;28;19962;-56
2021/11/06 02:37:51;;;;;;;;;;;;;;;;;;5089150;28;19911;-56
2021/11/06 02:40:18;;;;;;;;;;;;;;;;;;5089135;28;20307;-56
2021/11/06 02:42:44;;;;;;;;;;;;;;;;;;5087731;28;19904;-56
2021/11/06 02:45:10;;;;;;;;;;;;;;;;;;5088890;28;19904;-56
2021/11/06 02:47:36;;;;;;;;;;;;;;;;;;5088521;28;19940;-56
2021/11/06 02:50:03;;;;;;;;;;;;;;;;;;5088794;28;19990;-56
2021/11/06 02:52:28;;;;;;;;;;;;;;;;;;5088773;28;19904;-56
2021/11/06 02:54:55;;;;;;;;;;;;;;;;;;5088695;28;19989;-56
2021/11/06 02:57:21;;;;;;;;;;;;;;;;;;5088222;28;19936;-57
2021/11/06 02:59:50;;;;;;;;;;;;;;;;;;5088972;28;19966;-56
2021/11/06 03:02:16;;;;;;;;;;;;;;;;;;5088823;28;19977;-56
2021/11/06 03:04:42;;;;;;;;;;;;;;;;;;5088478;28;19904;-56
2021/11/06 03:07:08;;;;;;;;;;;;;;;;;;5088516;28;19911;-55
2021/11/06 03:09:41;;;;;;;;;;;;;;;;;;5088289;28;19911;-55
2021/11/06 03:12:07;;;;;;;;;;;;;;;;;;5088258;28;20386;-56
2021/11/06 03:14:33;;;;;;;;;;;;;;;;;;5088069;28;19911;-56
2021/11/06 03:17:00;;;;;;;;;;;;;;;;;;5088316;28;19904;-56
2021/11/06 03:19:26;;;;;;;;;;;;;;;;;;5087633;28;19978;-56
2021/11/06 03:21:52;;;;;;;;;;;;;;;;;;5088069;28;19951;-56
2021/11/06 03:24:18;;;;;;;;;;;;;;;;;;5088440;28;20397;-56
2021/11/06 03:26:44;;;;;;;;;;;;;;;;;;5088626;28;19904;-56
2021/11/06 03:29:10;;;;;;;;;;;;;;;;;;5088300;28;19926;-56
2021/11/06 03:31:36;;;;;;;;;;;;;;;;;;5087715;28;20176;-56
2021/11/06 03:34:02;;;;;;;;;;;;;;;;;;5087327;28;19912;-56
2021/11/06 03:36:27;;;;;;;;;;;;;;;;;;5087042;28;19961;-56
2021/11/06 03:38:53;;;;;;;;;;;;;;;;;;5087721;28;19955;-56
2021/11/06 03:41:20;;;;;;;;;;;;;;;;;;5087598;28;20202;-55
2021/11/06 03:43:46;;;;;;;;;;;;;;;;;;5088436;28;19915;-56
2021/11/06 03:46:12;;;;;;;;;;;;;;;;;;5087792;28;19908;-56
2021/11/06 03:48:39;;;;;;;;;;;;;;;;;;5087581;28;19954;-56
2021/11/06 03:51:05;;;;;;;;;;;;;;;;;;5087651;28;20346;-56
2021/11/06 03:53:31;;;;;;;;;;;;;;;;;;5087308;28;19935;-55
2021/11/06 03:55:59;;;;;;;;;;;;;;;;;;5087627;28;19939;-56
2021/11/06 03:58:24;;;;;;;;;;;;;;;;;;5087081;28;19904;-56
2021/11/06 04:00:51;;;;;;;;;;;;;;;;;;5087430;28;20341;-56
2021/11/06 04:03:17;;;;;;;;;;;;;;;;;;5087862;28;19942;-56
2021/11/06 04:05:43;;;;;;;;;;;;;;;;;;5087276;28;20414;-56
2021/11/06 04:08:10;;;;;;;;;;;;;;;;;;5087465;28;19912;-56
2021/11/06 04:10:36;;;;;;;;;;;;;;;;;;5087028;28;19916;-56
2021/11/06 04:13:02;;;;;;;;;;;;;;;;;;5087216;28;19908;-57
2021/11/06 04:15:29;;;;;;;;;;;;;;;;;;5087043;28;20007;-56
2021/11/06 04:17:55;;;;;;;;;;;;;;;;;;5087081;28;20301;-56
2021/11/06 04:20:21;;;;;;;;;;;;;;;;;;5086309;28;19911;-56
2021/11/06 04:22:50;;;;;;;;;;;;;;;;;;5087382;28;20386;-56
2021/11/06 04:25:17;;;;;;;;;;;;;;;;;;5087683;28;20423;-55
2021/11/06 04:27:43;;;;;;;;;;;;;;;;;;5086519;28;20391;-56
2021/11/06 04:30:09;;;;;;;;;;;;;;;;;;5087223;28;19954;-56
2021/11/06 04:32:36;;;;;;;;;;;;;;;;;;5086444;28;19904;-56
2021/11/06 04:35:02;;;;;;;;;;;;;;;;;;5086754;28;19919;-56
2021/11/06 04:37:28;;;;;;;;;;;;;;;;;;5086242;28;19904;-55
2021/11/06 04:39:54;;;;;;;;;;;;;;;;;;5085413;28;19935;-57
2021/11/06 04:42:20;;;;;;;;;;;;;;;;;;5086384;28;20358;-56
2021/11/06 04:44:46;;;;;;;;;;;;;;;;;;5087064;28;19912;-56
2021/11/06 04:47:12;;;;;;;;;;;;;;;;;;5086332;28;19904;-56
2021/11/06 04:49:39;;;;;;;;;;;;;;;;;;5086411;28;19904;-57
2021/11/06 04:52:06;;;;;;;;;;;;;;;;;;5086634;28;20287;-56
2021/11/06 04:54:32;;;;;;;;;;;;;;;;;;5086519;28;19912;-56
2021/11/06 04:56:58;;;;;;;;;;;;;;;;;;5086231;28;19915;-56
2021/11/06 04:59:23;;;;;;;;;;;;;;;;;;5086183;28;19954;-57
2021/11/06 05:01:50;;;;;;;;;;;;;;;;;;5086694;28;19904;-56
2021/11/06 05:04:17;;;;;;;;;;;;;;;;;;5086606;28;19912;-56
2021/11/06 05:06:44;;;;;;;;;;;;;;;;;;5086215;28;19998;-56
2021/11/06 05:09:10;;;;;;;;;;;;;;;;;;5086318;28;19914;-57
2021/11/06 05:11:36;;;;;;;;;;;;;;;;;;5085817;28;19911;-56
2021/11/06 05:14:03;;;;;;;;;;;;;;;;;;5086163;28;20386;-56
2021/11/06 05:16:32;;;;;;;;;;;;;;;;;;5085765;28;19904;-56
2021/11/06 05:18:57;;;;;;;;;;;;;;;;;;5085995;28;19911;-56
2021/11/06 05:21:24;;;;;;;;;;;;;;;;;;5085323;28;20002;-57
2021/11/06 05:23:51;;;;;;;;;;;;;;;;;;5085937;28;19904;-56
2021/11/06 05:26:17;;;;;;;;;;;;;;;;;;5086107;28;20325;-56
2021/11/06 05:28:43;;;;;;;;;;;;;;;;;;5085870;28;19908;-56
2021/11/06 05:31:09;;;;;;;;;;;;;;;;;;5086174;28;19904;-56
2021/11/06 05:33:35;;;;;;;;;;;;;;;;;;5085405;28;19987;-56
2021/11/06 05:36:02;;;;;;;;;;;;;;;;;;5085777;28;19939;-55
2021/11/06 05:38:28;;;;;;;;;;;;;;;;;;5085557;28;19950;-56
2021/11/06 05:40:53;;;;;;;;;;;;;;;;;;5085761;28;19908;-57
2021/11/06 05:43:20;;;;;;;;;;;;;;;;;;5086046;28;19969;-56
2021/11/06 05:45:46;;;;;;;;;;;;;;;;;;5086222;28;20288;-56
2021/11/06 05:48:13;;;;;;;;;;;;;;;;;;5085403;28;20405;-56
2021/11/06 05:50:39;;;;;;;;;;;;;;;;;;5084799;28;19904;-57
2021/11/06 05:53:06;;;;;;;;;;;;;;;;;;5085629;28;19931;-57
2021/11/06 05:55:33;;;;;;;;;;;;;;;;;;5085332;28;19919;-56
2021/11/06 05:57:59;;;;;;;;;;;;;;;;;;5086161;28;19904;-57
2021/11/06 06:00:25;;;;;;;;;;;;;;;;;;5090011;28;19911;-57
2021/11/06 06:02:51;;;;;;;;;;;;;;;;;;5089716;28;19908;-55
2021/11/06 06:05:18;;;;;;;;;;;;;;;;;;5071482;28;20379;-56
2021/11/06 06:07:45;;;;;;;;;;;;;;;;;;5068751;28;19995;-56
2021/11/06 06:10:11;;;;;;;;;;;;;;;;;;5070364;28;19969;-56
2021/11/06 06:12:38;;;;;;;;;;;;;;;;;;5070223;28;19920;-56
2021/11/06 06:15:04;;;;;;;;;;;;;;;;;;5070670;28;19916;-56
2021/11/06 06:17:30;;;;;;;;;;;;;;;;;;5070237;28;19908;-56
2021/11/06 06:19:57;;;;;;;;;;;;;;;;;;5069463;28;19999;-56
2021/11/06 06:22:23;;;;;;;;;;;;;;;;;;5070327;28;19915;-56
2021/11/06 06:24:49;;;;;;;;;;;;;;;;;;5070458;28;19954;-56
2021/11/06 06:27:15;;;;;;;;;;;;;;;;;;5082469;28;19909;-56
2021/11/06 06:29:41;;;;;;;;;;;;;;;;;;5069657;28;19912;-56
2021/11/06 06:32:07;;;;;;;;;;;;;;;;;;5069916;28;20511;-55
2021/11/06 06:34:33;;;;;;;;;;;;;;;;;;5069451;28;19912;-56
2021/11/06 06:36:59;;;;;;;;;;;;;;;;;;5071112;28;19908;-56
2021/11/06 06:39:25;;;;;;;;;;;;;;;;;;5074497;28;19915;-57
2021/11/06 06:41:51;;;;;;;;;;;;;;;;;;5077608;28;19931;-56
2021/11/06 06:44:17;;;;;;;;;;;;;;;;;;5071416;28;20003;-56
2021/11/06 06:46:43;;;;;;;;;;;;;;;;;;5070037;28;19911;-57
2021/11/06 06:49:09;;;;;;;;;;;;;;;;;;5070003;28;20265;-57
2021/11/06 06:51:35;;;;;;;;;;;;;;;;;;5068432;28;19901;-56
2021/11/06 06:54:00;;;;;;;;;;;;;;;;;;5068620;28;19916;-57
2021/11/06 06:56:27;;;;;;;;;;;;;;;;;;5068041;28;19998;-57
2021/11/06 06:58:53;;;;;;;;;;;;;;;;;;5068178;28;20391;-56
2021/11/06 07:01:19;;;;;;;;;;;;;;;;;;5068755;28;19965;-57
2021/11/06 07:03:46;;;;;;;;;;;;;;;;;;5068570;28;19904;-57
2021/11/06 07:06:13;;;;;;;;;;;;;;;;;;5068687;28;19909;-56
2021/11/06 07:08:38;;;;;;;;;;;;;;;;;;5068101;28;19908;-57
2021/11/06 07:11:05;;;;;;;;;;;;;;;;;;5068058;28;19961;-57
2021/11/06 07:13:34;;;;;;;;;;;;;;;;;;5072792;28;19912;-56
2021/11/06 07:16:01;;;;;;;;;;;;;;;;;;5089054;28;20263;-57
2021/11/06 07:18:27;;;;;;;;;;;;;;;;;;5088884;28;19930;-56
2021/11/06 07:20:54;;;;;;;;;;;;;;;;;;5085537;28;19912;-57
2021/11/06 07:23:20;;;;;;;;;;;;;;;;;;5087173;28;20692;-56
2021/11/06 07:25:46;;;;;;;;;;;;;;;;;;5072147;28;19970;-56
2021/11/06 07:28:12;;;;;;;;;;;;;;;;;;5069477;28;19914;-56
2021/11/06 07:30:38;;;;;;;;;;;;;;;;;;5088015;28;20420;-55
2021/11/06 07:33:04;;;;;;;;;;;;;;;;;;5070502;28;20302;-56
2021/11/06 07:35:31;;;;;;;;;;;;;;;;;;5067133;28;19916;-56
2021/11/06 07:37:57;;;;;;;;;;;;;;;;;;5078190;28;19919;-56
2021/11/06 07:40:23;;;;;;;;;;;;;;;;;;5071277;28;19908;-56
2021/11/06 07:42:49;;;;;;;;;;;;;;;;;;5073693;28;20492;-56
2021/11/06 07:45:15;;;;;;;;;;;;;;;;;;5075731;28;19908;-56
2021/11/06 07:47:42;;;;;;;;;;;;;;;;;;5080281;28;19940;-57
2021/11/06 07:50:08;;;;;;;;;;;;;;;;;;5079430;28;19961;-57
2021/11/06 07:52:34;;;;;;;;;;;;;;;;;;5075586;28;19905;-57
2021/11/06 07:55:00;;;;;;;;;;;;;;;;;;5071308;28;20345;-57
2021/11/06 07:57:26;;;;;;;;;;;;;;;;;;5077027;28;19919;-56
2021/11/06 07:59:52;;;;;;;;;;;;;;;;;;5083770;28;19978;-57
2021/11/06 08:02:18;;;;;;;;;;;;;;;;;;5078852;28;19909;-57
2021/11/06 08:04:44;;;;;;;;;;;;;;;;;;5088155;28;19928;-57
2021/11/06 08:07:10;;;;;;;;;;;;;;;;;;5078674;28;19915;-57
2021/11/06 08:09:36;;;;;;;;;;;;;;;;;;5088314;28;19916;-56
2021/11/06 08:12:02;;;;;;;;;;;;;;;;;;5088744;28;20260;-55
2021/11/06 08:14:28;;;;;;;;;;;;;;;;;;5085269;28;19912;-53
2021/11/06 08:16:59;;;;;;;;;;;;;;;;;;5084783;28;19908;-56
2021/11/06 08:19:25;;;;;;;;;;;;;;;;;;5079152;28;19908;-57
2021/11/06 08:21:51;;;;;;;;;;;;;;;;;;5067975;28;20409;-56
2021/11/06 08:24:17;;;;;;;;;;;;;;;;;;5067752;28;19931;-55
2021/11/06 08:26:43;;;;;;;;;;;;;;;;;;5067295;28;19912;-54
2021/11/06 08:29:09;;;;;;;;;;;;;;;;;;5066362;28;20046;-53
2021/11/06 08:31:35;;;;;;;;;;;;;;;;;;5065699;28;19915;-54
2021/11/06 08:34:01;;;;;;;;;;;;;;;;;;5083488;28;19912;-53
2021/11/06 08:36:27;;;;;;;;;;;;;;;;;;5077709;28;19914;-53
2021/11/06 08:38:53;;;;;;;;;;;;;;;;;;5086398;28;20419;-54
2021/11/06 08:41:19;;;;;;;;;;;;;;;;;;5086644;28;19904;-55
2021/11/06 08:43:45;;;;;;;;;;;;;;;;;;5077084;28;19919;-56
2021/11/06 08:46:10;;;;;;;;;;;;;;;;;;5067716;28;20014;-54
2021/11/06 08:48:37;;;;;;;;;;;;;;;;;;5075807;28;19954;-54
2021/11/06 08:51:03;;;;;;;;;;;;;;;;;;5087750;28;19908;-55
2021/11/06 08:53:29;;;;;;;;;;;;;;;;;;5086731;28;19904;-55
2021/11/06 08:55:55;;;;;;;;;;;;;;;;;;5079271;28;19947;-55
2021/11/06 08:58:21;;;;;;;;;;;;;;;;;;5067540;28;20817;-55
2021/11/06 09:00:48;;;;;;;;;;;;;;;;;;5075987;28;19916;-54
2021/11/06 09:03:14;;;;;;;;;;;;;;;;;;5086747;28;20566;-54
2021/11/06 09:05:40;;;;;;;;;;;;;;;;;;5083750;28;19958;-56
2021/11/06 09:08:06;;;;;;;;;;;;;;;;;;5072797;28;19912;-54
2021/11/06 09:10:32;;;;;;;;;;;;;;;;;;5076518;28;19912;-54
2021/11/06 09:12:57;;;;;;;;;;;;;;;;;;5074235;28;19965;-54
2021/11/06 09:15:23;;;;;;;;;;;;;;;;;;5085330;28;19912;-53
2021/11/06 09:17:49;;;;;;;;;;;;;;;;;;5067666;28;20237;-54
2021/11/06 09:20:15;;;;;;;;;;;;;;;;;;5065354;28;19908;-54
2021/11/06 09:22:42;;;;;;;;;;;;;;;;;;5065072;28;19904;-54
2021/11/06 09:25:08;;;;;;;;;;;;;;;;;;5072765;28;19958;-54
2021/11/06 09:27:35;;;;;;;;;;;;;;;;;;5069457;28;19951;-51
2021/11/06 09:30:02;;;;;;;;;;;;;;;;;;5064878;28;20409;-53
2021/11/06 09:32:28;;;;;;;;;;;;;;;;;;5063207;28;19951;-54
2021/11/06 09:34:54;;;;;;;;;;;;;;;;;;5064935;28;20389;-55
2021/11/06 09:37:21;;;;;;;;;;;;;;;;;;5064577;28;19915;-54
2021/11/06 09:39:47;;;;;;;;;;;;;;;;;;5065081;28;19912;-55
2021/11/06 09:42:14;;;;;;;;;;;;;;;;;;5064463;28;19920;-54
2021/11/06 09:44:40;;;;;;;;;;;;;;;;;;5072156;28;19912;-54
2021/11/06 09:47:12;;;;;;;;;;;;;;;;;;5082108;28;19931;-54
2021/11/06 09:49:38;;;;;;;;;;;;;;;;;;5063836;28;20003;-54
2021/11/06 09:52:05;;;;;;;;;;;;;;;;;;5084837;28;20015;-54
2021/11/06 09:54:32;;;;;;;;;;;;;;;;;;5076773;28;20383;-54
2021/11/06 09:56:57;;;;;;;;;;;;;;;;;;5064609;28;20403;-56
2021/11/06 09:59:23;;;;;;;;;;;;;;;;;;5064652;28;19961;-55
2021/11/06 10:01:49;;;;;;;;;;;;;;;;;;5065447;28;19974;-56
2021/11/06 10:04:15;;;;;;;;;;;;;;;;;;5067981;28;19915;-54
2021/11/06 10:06:45;;;;;;;;;;;;;;;;;;5093985;28;19904;-55
2021/11/06 10:09:11;;;;;;;;;;;;;;;;;;5084547;28;19935;-54
2021/11/06 10:11:37;;;;;;;;;;;;;;;;;;5099439;28;19927;-54
2021/11/06 10:14:03;;;;;;;;;;;;;;;;;;5099876;28;19916;-55
2021/11/06 10:16:29;;;;;;;;;;;;;;;;;;5079979;28;19908;-54
2021/11/06 10:18:55;;;;;;;;;;;;;;;;;;5103734;28;20378;-54
2021/11/06 10:21:21;;;;;;;;;;;;;;;;;;5096405;28;19915;-53
2021/11/06 10:23:48;;;;;;;;;;;;;;;;;;5084767;28;19973;-53
2021/11/06 10:26:14;;;;;;;;;;;;;;;;;;5100835;28;19918;-56
2021/11/06 10:28:39;;;;;;;;;;;;;;;;;;5079718;28;20369;-55
2021/11/06 10:31:05;;;;;;;;;;;;;;;;;;5085989;28;20264;-55
2021/11/06 10:33:31;;;;;;;;;;;;;;;;;;5085967;28;19939;-53
2021/11/06 10:35:59;;;;;;;;;;;;;;;;;;5070224;28;20025;-54
2021/11/06 10:38:26;;;;;;;;;;;;;;;;;;5069908;28;19950;-51
2021/11/06 10:40:52;;;;;;;;;;;;;;;;;;5093713;28;19953;-53
2021/11/06 10:43:18;;;;;;;;;;;;;;;;;;5081003;28;19908;-53
2021/11/06 10:45:44;;;;;;;;;;;;;;;;;;5072374;28;19966;-52
2021/11/06 10:48:11;;;;;;;;;;;;;;;;;;5078516;28;19939;-53
2021/11/06 10:50:37;;;;;;;;;;;;;;;;;;5086074;28;19918;-54
2021/11/06 10:53:04;;;;;;;;;;;;;;;;;;5087960;28;19908;-53
2021/11/06 10:55:31;;;;;;;;;;;;;;;;;;5082528;28;19967;-54
2021/11/06 10:57:57;;;;;;;;;;;;;;;;;;5067411;28;19942;-54
2021/11/06 11:00:23;;;;;;;;;;;;;;;;;;5067756;28;19944;-55
2021/11/06 11:02:49;;;;;;;;;;;;;;;;;;5072596;28;20282;-55
2021/11/06 11:05:14;;;;;;;;;;;;;;;;;;5077473;28;19911;-55
2021/11/06 11:07:40;;;;;;;;;;;;;;;;;;5082845;28;19912;-55
2021/11/06 11:10:06;;;;;;;;;;;;;;;;;;5072817;28;19941;-55
2021/11/06 11:12:35;;;;;;;;;;;;;;;;;;5087038;28;20363;-55
2021/11/06 11:15:01;;;;;;;;;;;;;;;;;;5082363;28;19912;-55
2021/11/06 11:17:27;;;;;;;;;;;;;;;;;;5071732;28;19915;-55
2021/11/06 11:19:53;;;;;;;;;;;;;;;;;;5083815;28;20006;-56
2021/11/06 11:22:19;;;;;;;;;;;;;;;;;;5070295;28;19904;-55
2021/11/06 11:24:45;;;;;;;;;;;;;;;;;;5077961;28;19912;-54
2021/11/06 11:27:11;;;;;;;;;;;;;;;;;;5072742;28;20002;-55
2021/11/06 11:29:39;;;;;;;;;;;;;;;;;;5081388;28;19905;-54
2021/11/06 11:32:05;;;;;;;;;;;;;;;;;;5075965;28;19908;-54
2021/11/06 11:34:31;;;;;;;;;;;;;;;;;;5076311;28;20398;-55
2021/11/06 11:36:57;;;;;;;;;;;;;;;;;;5077739;28;20335;-51
2021/11/06 11:39:23;;;;;;;;;;;;;;;;;;5087942;28;19973;-54
2021/11/06 11:41:49;;;;;;;;;;;;;;;;;;5088313;28;19904;-55
2021/11/06 11:44:16;;;;;;;;;;;;;;;;;;5077984;28;19919;-54
2021/11/06 11:46:42;;;;;;;;;;;;;;;;;;5099714;28;19911;-51
2021/11/06 11:49:08;;;;;;;;;;;;;;;;;;5095929;28;19912;-53
2021/11/06 11:51:34;;;;;;;;;;;;;;;;;;5085644;28;19912;-54
2021/11/06 11:54:00;;;;;;;;;;;;;;;;;;5081517;28;19919;-51
2021/11/06 11:56:28;;;;;;;;;;;;;;;;;;5073274;28;19918;-51
2021/11/06 11:58:54;;;;;;;;;;;;;;;;;;5073219;28;20298;-52
2021/11/06 12:01:20;;;;;;;;;;;;;;;;;;5075129;28;19954;-52
2021/11/06 12:03:47;;;;;;;;;;;;;;;;;;5080742;28;19978;-53
2021/11/06 12:06:13;;;;;;;;;;;;;;;;;;5077082;28;19955;-54
2021/11/06 12:08:39;;;;;;;;;;;;;;;;;;5071243;28;19979;-53
2021/11/06 12:11:06;;;;;;;;;;;;;;;;;;5074293;28;19918;-54
2021/11/06 12:13:32;;;;;;;;;;;;;;;;;;5068491;28;19904;-53
2021/11/06 12:15:58;;;;;;;;;;;;;;;;;;5068766;28;20389;-54
2021/11/06 12:18:24;;;;;;;;;;;;;;;;;;5068751;28;19965;-55
2021/11/06 12:20:50;;;;;;;;;;;;;;;;;;5074519;28;19969;-54
2021/11/06 12:23:16;;;;;;;;;;;;;;;;;;5088529;28;20416;-54
2021/11/06 12:25:42;;;;;;;;;;;;;;;;;;5073283;28;19961;-55
2021/11/06 12:28:08;;;;;;;;;;;;;;;;;;5077690;28;19912;-55
2021/11/06 12:30:35;;;;;;;;;;;;;;;;;;5075679;28;19982;-55
2021/11/06 12:33:02;;;;;;;;;;;;;;;;;;5080578;28;20291;-55
2021/11/06 12:35:28;;;;;;;;;;;;;;;;;;5072394;28;20050;-54
2021/11/06 12:37:54;;;;;;;;;;;;;;;;;;5077214;28;20430;-55
2021/11/06 12:40:20;;;;;;;;;;;;;;;;;;5084662;28;19915;-53
2021/11/06 12:42:46;;;;;;;;;;;;;;;;;;5085998;28;19912;-53
2021/11/06 12:45:13;;;;;;;;;;;;;;;;;;5088578;28;20340;-54
2021/11/06 12:47:40;;;;;;;;;;;;;;;;;;5088049;28;19899;-53
2021/11/06 12:50:06;;;;;;;;;;;;;;;;;;5072437;28;20024;-55
2021/11/06 12:52:32;;;;;;;;;;;;;;;;;;5068522;28;20372;-54
2021/11/06 12:54:58;;;;;;;;;;;;;;;;;;5068934;28;19938;-54
2021/11/06 12:57:24;;;;;;;;;;;;;;;;;;5079657;28;20020;-54
2021/11/06 12:59:49;;;;;;;;;;;;;;;;;;5088822;28;19911;-53
2021/11/06 13:02:16;;;;;;;;;;;;;;;;;;5088358;28;19903;-55
2021/11/06 13:04:42;;;;;;;;;;;;;;;;;;5087927;28;20042;-54
2021/11/06 13:07:08;;;;;;;;;;;;;;;;;;5087413;28;20011;-54
2021/11/06 13:09:35;;;;;;;;;;;;;;;;;;5087704;28;19916;-54
2021/11/06 13:12:01;;;;;;;;;;;;;;;;;;5085612;28;19912;-55
2021/11/06 13:14:27;;;;;;;;;;;;;;;;;;5087522;28;19908;-55
2021/11/06 13:16:53;;;;;;;;;;;;;;;;;;5087853;28;19908;-54
2021/11/06 13:19:19;;;;;;;;;;;;;;;;;;5080998;28;19931;-55
2021/11/06 13:21:45;;;;;;;;;;;;;;;;;;5074033;28;19957;-55
2021/11/06 13:24:11;;;;;;;;;;;;;;;;;;5082674;28;19912;-55
2021/11/06 13:26:37;;;;;;;;;;;;;;;;;;5082469;28;19908;-54
2021/11/06 13:29:03;;;;;;;;;;;;;;;;;;5071288;28;20019;-55
2021/11/06 13:31:29;;;;;;;;;;;;;;;;;;5073150;28;19908;-55
2021/11/06 13:33:55;;;;;;;;;;;;;;;;;;5082057;28;20006;-55
2021/11/06 13:36:21;;;;;;;;;;;;;;;;;;5081367;28;20011;-55
2021/11/06 13:38:53;;;;;;;;;;;;;;;;;;5067359;28;19912;-54
2021/11/06 13:41:19;;;;;;;;;;;;;;;;;;5082109;28;19908;-55
2021/11/06 13:43:45;;;;;;;;;;;;;;;;;;5071570;28;19947;-53
2021/11/06 13:46:12;;;;;;;;;;;;;;;;;;5085044;28;20433;-54
2021/11/06 13:48:40;;;;;;;;;;;;;;;;;;5087055;28;19908;-55
2021/11/06 13:51:06;;;;;;;;;;;;;;;;;;5087491;28;19908;-54
2021/11/06 13:53:32;;;;;;;;;;;;;;;;;;5087518;28;20409;-54
2021/11/06 13:55:58;;;;;;;;;;;;;;;;;;5083044;28;19917;-55
2021/11/06 13:58:24;;;;;;;;;;;;;;;;;;5067530;28;20372;-55
2021/11/06 14:00:50;;;;;;;;;;;;;;;;;;5083882;28;19904;-56
2021/11/06 14:03:16;;;;;;;;;;;;;;;;;;5086277;28;19956;-55
2021/11/06 14:05:42;;;;;;;;;;;;;;;;;;5086977;28;19904;-55
2021/11/06 14:08:10;;;;;;;;;;;;;;;;;;5086573;28;19946;-55
2021/11/06 14:10:39;;;;;;;;;;;;;;;;;;5086907;28;19965;-55
2021/11/06 14:13:05;;;;;;;;;;;;;;;;;;5086815;28;19912;-55
2021/11/06 14:15:36;;;;;;;;;;;;;;;;;;5086703;28;19961;-55
2021/11/06 14:18:04;;;;;;;;;;;;;;;;;;5068467;28;20334;-55
2021/11/06 14:20:30;;;;;;;;;;;;;;;;;;5084061;28;19904;-55
2021/11/06 14:22:56;;;;;;;;;;;;;;;;;;5089465;28;19904;-55
2021/11/06 14:25:22;;;;;;;;;;;;;;;;;;5083803;28;19927;-54
2021/11/06 14:27:49;;;;;;;;;;;;;;;;;;5091927;28;19915;-55
2021/11/06 14:30:15;;;;;;;;;;;;;;;;;;5090802;28;19904;-53
2021/11/06 14:32:41;;;;;;;;;;;;;;;;;;5091163;28;19923;-54
2021/11/06 14:35:07;;;;;;;;;;;;;;;;;;5091101;28;19953;-54
2021/11/06 14:37:33;;;;;;;;;;;;;;;;;;5084345;28;19914;-54
2021/11/06 14:40:00;;;;;;;;;;;;;;;;;;5085334;28;19919;-54
2021/11/06 14:42:27;;;;;;;;;;;;;;;;;;5090161;28;19982;-54
2021/11/06 14:44:53;;;;;;;;;;;;;;;;;;5091007;28;19990;-55
2021/11/06 14:47:19;;;;;;;;;;;;;;;;;;5090747;28;19912;-55
2021/11/06 14:49:45;;;;;;;;;;;;;;;;;;5091166;28;20342;-55
2021/11/06 14:52:12;;;;;;;;;;;;;;;;;;5090661;28;19935;-55
2021/11/06 14:54:38;;;;;;;;;;;;;;;;;;5090870;28;19959;-55
2021/11/06 14:57:04;;;;;;;;;;;;;;;;;;5079960;28;20554;-55
2021/11/06 14:59:30;;;;;;;;;;;;;;;;;;5090292;28;19911;-55
2021/11/06 15:01:56;;;;;;;;;;;;;;;;;;5090777;28;19914;-55
2021/11/06 15:04:22;;;;;;;;;;;;;;;;;;5089407;28;19998;-54
2021/11/06 15:06:48;;;;;;;;;;;;;;;;;;5092077;28;19904;-54
2021/11/06 15:09:14;;;;;;;;;;;;;;;;;;5090149;28;19967;-54
2021/11/06 15:11:40;;;;;;;;;;;;;;;;;;5090009;28;20137;-55
2021/11/06 15:14:06;;;;;;;;;;;;;;;;;;5090416;28;19984;-55
2021/11/06 15:16:34;;;;;;;;;;;;;;;;;;5090473;28;19904;-54
2021/11/06 15:19:00;;;;;;;;;;;;;;;;;;5090467;28;19908;-56
2021/11/06 15:21:28;;;;;;;;;;;;;;;;;;5089938;28;19904;-55
2021/11/06 15:23:54;;;;;;;;;;;;;;;;;;5088138;28;20471;-55
2021/11/06 15:26:21;;;;;;;;;;;;;;;;;;5090119;28;19915;-55
2021/11/06 15:28:47;;;;;;;;;;;;;;;;;;5086120;28;19964;-54
2021/11/06 15:31:13;;;;;;;;;;;;;;;;;;5089823;28;19931;-55
2021/11/06 15:33:39;;;;;;;;;;;;;;;;;;5089780;28;19904;-53
2021/11/06 15:36:05;;;;;;;;;;;;;;;;;;5090058;28;19916;-54
2021/11/06 15:38:31;;;;;;;;;;;;;;;;;;5071761;28;20023;-55
2021/11/06 15:40:57;;;;;;;;;;;;;;;;;;5078381;28;19915;-54
2021/11/06 15:43:24;;;;;;;;;;;;;;;;;;5069533;28;19911;-54
2021/11/06 15:45:50;;;;;;;;;;;;;;;;;;5088938;28;19904;-54
2021/11/06 15:48:16;;;;;;;;;;;;;;;;;;5089982;28;19991;-55
2021/11/06 15:50:42;;;;;;;;;;;;;;;;;;5089933;28;19910;-55
2021/11/06 15:53:09;;;;;;;;;;;;;;;;;;5089334;28;19908;-55
2021/11/06 15:55:35;;;;;;;;;;;;;;;;;;5089187;28;20391;-55
2021/11/06 15:58:01;;;;;;;;;;;;;;;;;;5089017;28;19962;-54
2021/11/06 16:00:27;;;;;;;;;;;;;;;;;;5087673;28;19904;-55
2021/11/06 16:02:53;;;;;;;;;;;;;;;;;;5070386;28;19912;-55
2021/11/06 16:05:20;;;;;;;;;;;;;;;;;;5081636;28;19904;-54
2021/11/06 16:07:46;;;;;;;;;;;;;;;;;;5089254;28;19951;-55
2021/11/06 16:10:12;;;;;;;;;;;;;;;;;;5092790;28;19940;-54
2021/11/06 16:12:38;;;;;;;;;;;;;;;;;;5088223;28;20354;-54
2021/11/06 16:15:05;;;;;;;;;;;;;;;;;;5086566;28;20006;-55
2021/11/06 16:17:32;;;;;;;;;;;;;;;;;;5087965;28;19915;-55
2021/11/06 16:20:04;;;;;;;;;;;;;;;;;;5087966;28;20291;-54
2021/11/06 16:22:30;;;;;;;;;;;;;;;;;;5087959;28;19911;-54
2021/11/06 16:24:56;;;;;;;;;;;;;;;;;;5088616;28;19961;-55
2021/11/06 16:27:22;;;;;;;;;;;;;;;;;;5088728;28;20366;-55
2021/11/06 16:29:48;;;;;;;;;;;;;;;;;;5088701;28;19915;-55
2021/11/06 16:32:14;;;;;;;;;;;;;;;;;;5088399;28;19908;-55
2021/11/06 16:34:40;;;;;;;;;;;;;;;;;;5087871;28;19977;-56
2021/11/06 16:37:06;;;;;;;;;;;;;;;;;;5087453;28;20399;-55
2021/11/06 16:39:32;;;;;;;;;;;;;;;;;;5081688;28;19938;-57